Time;durP1;ratioP1;P1;durP2;ratioP2;P2;SDS_P1;SDS_P2;PMS_P1;PMS_P2;Temp;Humidity;BMP_temperature;BMP_pressure;BME280_temperature;BME280_humidity;BME280_pressure;Samples;Min_cycle;Max_cycle;Signal;HPM_P1;HPM_P2
2021/04/14 00:01:16;;;;;;;7.68;3.72;;;;;;;24.07;17.86;98623.31;5063263;28;20052;-88
2021/04/14 00:03:45;;;;;;;7.07;4.28;;;;;;;24.56;17.28;98620.63;5063500;28;20133;-88
2021/04/14 00:06:14;;;;;;;6.93;4.70;;;;;;;24.81;17.11;98611.81;5065082;28;20024;-88
2021/04/14 00:08:40;;;;;;;7.45;5.30;;;;;;;24.96;16.94;98612.38;5069462;28;20497;-87
2021/04/14 00:11:11;;;;;;;6.15;4.65;;;;;;;24.99;16.81;98612.34;5061413;28;20124;-87
2021/04/14 00:13:43;;;;;;;9.45;6.13;;;;;;;25.04;16.82;98608.25;5064577;28;20407;-87
2021/04/14 00:16:29;;;;;;;10.85;6.70;;;;;;;25.05;16.90;98607.81;5061016;28;20028;-88
2021/04/14 00:18:55;;;;;;;9.27;5.78;;;;;;;24.71;17.10;98607.16;5065388;28;20086;-88
2021/04/14 00:21:23;;;;;;;8.02;5.40;;;;;;;24.21;17.78;98606.31;5057777;28;20056;-88
2021/04/14 00:23:50;;;;;;;8.75;5.32;;;;;;;23.98;17.89;98609.78;5063590;28;20033;-88
2021/04/14 00:26:17;;;;;;;7.50;5.03;;;;;;;24.04;17.92;98610.91;5060923;28;20044;-88
2021/04/14 00:28:43;;;;;;;9.07;5.38;;;;;;;24.30;17.60;98600.94;5068534;28;20107;-88
2021/04/14 00:31:10;;;;;;;8.27;5.60;;;;;;;24.23;17.74;98606.66;5059203;28;20408;-88
2021/04/14 00:33:36;;;;;;;10.48;6.72;;;;;;;24.06;17.70;98611.34;5058441;28;20040;-88
2021/04/14 00:36:03;;;;;;;7.88;5.43;;;;;;;23.79;18.07;98608.44;5061274;28;20545;-88
2021/04/14 00:38:29;;;;;;;8.20;4.75;;;;;;;23.91;18.05;98616.28;5059178;28;20527;-88
2021/04/14 00:41:00;;;;;;;8.70;5.28;;;;;;;23.84;18.03;98609.97;5063452;28;20158;-88
2021/04/14 00:43:27;;;;;;;;;;;;;;;23.80;18.15;98610.03;5071242;28;21978;-88
2021/04/14 00:45:54;;;;;;;7.05;4.70;;;;;;;24.08;17.83;98605.28;5058126;28;19924;-88
2021/04/14 00:48:20;;;;;;;6.80;4.65;;;;;;;;;;5068115;28;20037;-88
2021/04/14 00:50:47;;;;;;;8.00;4.70;;;;;;;23.60;18.37;98599.84;5070082;28;20037;-88
2021/04/14 00:53:14;;;;;;;6.43;3.90;;;;;;;23.84;18.24;98607.97;5064176;28;20032;-88
2021/04/14 00:55:41;;;;;;;6.43;4.28;;;;;;;24.02;17.95;98605.72;5066933;28;20472;-88
2021/04/14 00:58:09;;;;;;;6.90;4.78;;;;;;;23.88;18.07;98600.31;5069883;28;20078;-87
2021/04/14 01:00:40;;;;;;;5.85;4.25;;;;;;;24.06;17.72;98597.31;5066677;28;20029;-87
2021/04/14 01:03:11;;;;;;;5.20;3.80;;;;;;;24.03;17.93;98596.09;5057217;28;20025;-87
2021/04/14 01:05:37;;;;;;;5.78;3.90;;;;;;;23.84;18.20;98596.75;5061675;28;20487;-87
2021/04/14 01:08:05;;;;;;;5.20;3.33;;;;;;;23.97;17.97;98602.59;5061030;28;20025;-87
2021/04/14 01:10:31;;;;;;;5.60;3.75;;;;;;;24.32;17.60;98601.34;5069784;28;20031;-87
2021/04/14 01:12:57;;;;;;;6.43;3.92;;;;;;;24.34;17.38;98599.69;5060646;28;20131;-87
2021/04/14 01:15:28;;;;;;;6.40;3.75;;;;;;;24.32;17.64;98593.72;5063949;28;20035;-87
2021/04/14 01:17:54;;;;;;;7.65;3.40;;;;;;;24.19;17.82;98592.72;5063099;28;20037;-87
2021/04/14 01:20:21;;;;;;;7.85;4.75;;;;;;;24.10;17.93;98589.63;5065257;28;20032;-87
2021/04/14 01:22:47;;;;;;;8.07;4.80;;;;;;;23.94;18.04;98586.63;5060006;28;20037;-87
2021/04/14 01:25:20;;;;;;;7.13;4.28;;;;;;;23.77;17.95;98587.63;5061376;28;20032;-87
2021/04/14 01:27:46;;;;;;;6.25;4.47;;;;;;;23.67;18.30;98589.34;5068448;28;20400;-87
2021/04/14 01:30:25;;;;;;;6.70;4.45;;;;;;;23.80;18.20;98587.59;5069477;28;20249;-87
2021/04/14 01:32:52;;;;;;;6.28;4.30;;;;;;;23.90;18.09;98597.06;5070188;28;20123;-87
2021/04/14 01:35:22;;;;;;;5.43;3.45;;;;;;;24.02;17.93;98576.88;5061641;28;20024;-87
2021/04/14 01:37:50;;;;;;;6.03;4.30;;;;;;;23.74;18.05;98572.44;5068499;28;20033;-86
2021/04/14 01:40:18;;;;;;;6.43;4.43;;;;;;;23.90;18.07;98580.25;5069300;28;20024;-87
2021/04/14 01:42:44;;;;;;;7.60;4.65;;;;;;;23.69;18.28;98570.09;5068856;28;20040;-86
2021/04/14 01:45:13;;;;;;;6.15;4.32;;;;;;;23.40;18.41;98577.28;5064162;28;20032;-87
2021/04/14 01:47:39;;;;;;;6.97;4.78;;;;;;;23.17;18.77;98582.69;5061174;28;20039;-87
2021/04/14 01:50:07;;;;;;;6.32;4.13;;;;;;;23.13;18.83;98568.72;5066145;28;20455;-87
2021/04/14 01:52:34;;;;;;;5.10;3.85;;;;;;;23.16;18.79;98573.50;5073356;28;20033;-87
2021/04/14 01:55:01;;;;;;;5.18;4.00;;;;;;;23.54;18.42;98581.91;5072892;28;20142;-87
2021/04/14 01:57:27;;;;;;;7.15;4.40;;;;;;;23.85;17.95;98572.31;5066649;28;20032;-86
2021/04/14 01:59:54;;;;;;;7.00;4.53;;;;;;;23.79;18.07;98571.97;5068156;28;20115;-87
2021/04/14 02:02:20;;;;;;;5.47;3.90;;;;;;;23.64;18.20;98567.75;5071137;28;20044;-87
2021/04/14 02:04:47;;;;;;;5.15;3.55;;;;;;;23.73;18.15;98567.25;5070905;28;20020;-87
2021/04/14 02:07:13;;;;;;;4.88;3.13;;;;;;;24.02;18.00;98566.47;5070653;28;20518;-87
2021/04/14 02:09:39;;;;;;;7.25;4.15;;;;;;;24.30;17.58;98572.88;5074411;28;20086;-87
2021/04/14 02:12:09;;;;;;;6.10;3.88;;;;;;;24.15;17.72;98569.53;5074364;28;20048;-87
2021/04/14 02:14:35;;;;;;;4.85;3.88;;;;;;;23.99;17.79;98570.09;5060390;28;20396;-87
2021/04/14 02:17:02;;;;;;;5.07;3.63;;;;;;;24.04;17.89;98575.25;5068764;28;20045;-87
2021/04/14 02:19:28;;;;;;;5.00;3.30;;;;;;;24.23;17.59;98562.56;5068870;28;20028;-87
2021/04/14 02:21:54;;;;;;;5.53;3.35;;;;;;;24.43;17.50;98554.25;5068619;28;20044;-88
2021/04/14 02:24:20;;;;;;;7.93;4.22;;;;;;;24.57;17.16;98556.84;5070367;28;20112;-88
2021/04/14 02:26:47;;;;;;;7.22;4.53;;;;;;;24.69;17.05;98554.22;5067289;28;20043;-88
2021/04/14 02:29:13;;;;;;;7.72;5.05;;;;;;;24.65;17.23;98547.88;5073649;28;20435;-87
2021/04/14 02:31:39;;;;;;;6.75;4.40;;;;;;;24.53;17.31;98545.66;5070698;28;20066;-87
2021/04/14 02:34:12;;;;;;;6.60;4.40;;;;;;;24.48;17.29;98542.56;5072201;28;20040;-87
2021/04/14 02:36:40;;;;;;;9.00;4.85;;;;;;;24.37;17.35;98553.94;5065907;28;20167;-87
2021/04/14 02:39:09;;;;;;;7.35;4.65;;;;;;;24.19;17.67;98549.81;5065696;28;20037;-87
2021/04/14 02:41:36;;;;;;;10.90;6.45;;;;;;;23.30;18.42;98550.94;5062497;28;20037;-87
2021/04/14 02:44:02;;;;;;;7.70;4.93;;;;;;;23.04;18.97;98550.81;5071325;28;20037;-88
2021/04/14 02:46:29;;;;;;;7.97;4.90;;;;;;;23.09;18.89;98545.56;5070921;28;20485;-87
2021/04/14 02:48:56;;;;;;;8.88;5.35;;;;;;;23.26;18.54;98540.97;5069507;28;20089;-87
2021/04/14 02:51:22;;;;;;;7.95;5.03;;;;;;;23.29;18.51;98540.16;5063916;28;20489;-87
2021/04/14 02:53:48;;;;;;;9.23;5.65;;;;;;;23.10;18.90;98537.94;5066394;28;20115;-87
2021/04/14 02:56:14;;;;;;;7.00;4.28;;;;;;;23.21;18.77;98541.41;5070638;28;20082;-87
2021/04/14 02:58:40;;;;;;;9.98;5.38;;;;;;;23.48;18.38;98535.94;5071003;28;20028;-87
2021/04/14 03:01:06;;;;;;;8.52;5.43;;;;;;;23.69;18.19;98538.47;5067578;28;20029;-87
2021/04/14 03:03:33;;;;;;;10.07;5.70;;;;;;;23.41;18.44;98542.41;5070006;28;20040;-87
2021/04/14 03:05:59;;;;;;;8.80;5.15;;;;;;;22.75;19.14;98538.31;5067057;28;20040;-87
2021/04/14 03:08:25;;;;;;;9.43;5.47;;;;;;;22.61;19.36;98542.81;5069211;28;20055;-87
2021/04/14 03:10:51;;;;;;;10.40;6.32;;;;;;;22.35;19.68;98543.41;5061525;28;20047;-87
2021/04/14 03:13:18;;;;;;;9.73;6.18;;;;;;;22.23;19.85;98540.28;5066537;28;20039;-86
2021/04/14 03:15:44;;;;;;;9.02;6.10;;;;;;;22.38;19.67;98541.78;5071955;28;20028;-86
2021/04/14 03:18:14;;;;;;;8.15;5.10;;;;;;;22.71;19.23;98543.16;5068071;28;20032;-86
2021/04/14 03:20:41;;;;;;;8.85;4.93;;;;;;;23.14;18.72;98533.09;5070980;28;20112;-86
2021/04/14 03:23:13;;;;;;;8.05;5.15;;;;;;;23.41;18.44;98542.41;5069752;28;20025;-86
2021/04/14 03:25:39;;;;;;;10.52;5.50;;;;;;;23.55;18.38;98536.63;5067894;28;20025;-87
2021/04/14 03:28:06;;;;;;;8.93;5.90;;;;;;;23.64;18.27;98541.75;5071395;28;20039;-87
2021/04/14 03:30:33;;;;;;;11.18;6.50;;;;;;;23.60;18.28;98541.78;5066565;28;20101;-87
2021/04/14 03:32:59;;;;;;;9.43;5.30;;;;;;;23.30;18.59;98542.53;5065108;28;20040;-87
2021/04/14 03:35:27;;;;;;;11.40;5.88;;;;;;;22.95;19.02;98542.09;5068409;28;20378;-87
2021/04/14 03:37:53;;;;;;;8.25;5.55;;;;;;;22.79;19.25;98533.47;5071040;28;20033;-87
2021/04/14 03:40:20;;;;;;;11.07;7.03;;;;;;;22.55;19.50;98540.84;5070852;28;20024;-86
2021/04/14 03:42:46;;;;;;;10.10;5.40;;;;;;;22.75;19.24;98543.91;5070292;28;20039;-87
2021/04/14 03:45:18;;;;;;;13.18;6.53;;;;;;;22.97;19.03;98545.28;5071357;28;20029;-87
2021/04/14 03:47:44;;;;;;;10.60;6.05;;;;;;;23.11;18.96;98542.31;5071442;28;20078;-87
2021/04/14 03:50:14;;;;;;;11.23;5.95;;;;;;;23.28;18.76;98539.34;5063112;28;20036;-87
2021/04/14 03:52:40;;;;;;;10.10;6.43;;;;;;;22.76;19.29;98540.69;5068550;28;20035;-86
2021/04/14 03:55:09;;;;;;;11.82;7.72;;;;;;;22.41;19.63;98543.75;5061671;28;20037;-86
2021/04/14 03:57:35;;;;;;;11.57;6.97;;;;;;;22.52;19.63;98542.44;5064273;28;20032;-86
2021/04/14 04:00:03;;;;;;;10.52;6.72;;;;;;;22.63;19.37;98553.59;5069503;28;20556;-87
2021/04/14 04:02:29;;;;;;;9.82;6.30;;;;;;;22.91;19.10;98541.34;5067918;28;20082;-87
2021/04/14 04:04:55;;;;;;;9.32;5.40;;;;;;;23.27;18.52;98551.75;5060607;28;20033;-87
2021/04/14 04:07:21;;;;;;;51.50;20.52;;;;;;;23.67;18.35;98546.50;5070538;28;20025;-87
2021/04/14 04:09:47;;;;;;;27.23;13.00;;;;;;;23.48;18.41;98553.53;5066831;28;21963;-87
2021/04/14 04:12:13;;;;;;;32.45;13.60;;;;;;;23.35;18.51;98561.72;5064848;28;20037;-87
2021/04/14 04:14:50;;;;;;;21.38;10.32;;;;;;;22.61;19.26;98551.19;5068232;28;20024;-87
2021/04/14 04:17:19;;;;;;;23.02;10.88;;;;;;;22.65;19.39;98556.78;5068609;28;20103;-87
2021/04/14 04:19:47;;;;;;;24.13;11.77;;;;;;;22.95;19.20;98554.09;5059954;28;20071;-87
2021/04/14 04:22:18;;;;;;;14.68;8.27;;;;;;;22.99;19.07;98559.66;5071347;28;20028;-87
2021/04/14 04:24:45;;;;;;;16.40;8.32;;;;;;;23.09;18.98;98558.75;5060730;28;20123;-87
2021/04/14 04:27:11;;;;;;;14.35;8.35;;;;;;;23.04;18.94;98557.19;5065983;28;20024;-87
2021/04/14 04:29:37;;;;;;;13.68;8.13;;;;;;;23.07;19.04;98556.38;5070317;28;20024;-87
2021/04/14 04:32:03;;;;;;;11.10;7.18;;;;;;;23.23;18.67;98562.22;5060494;28;20029;-87
2021/04/14 04:34:29;;;;;;;13.43;8.13;;;;;;;22.95;19.12;98558.91;5064139;28;20032;-88
2021/04/14 04:36:55;;;;;;;11.90;7.28;;;;;;;22.33;19.82;98565.41;5069659;28;20111;-87
2021/04/14 04:39:22;;;;;;;12.52;7.65;;;;;;;21.55;20.70;98562.22;5065787;28;20052;-88
2021/04/14 04:41:48;;;;;;;9.65;6.60;;;;;;;21.30;21.04;98564.31;5066055;28;20036;-90
2021/04/14 04:44:15;;;;;;;10.80;6.85;;;;;;;21.39;21.04;98567.47;5069421;28;20493;-91
2021/04/14 04:46:41;;;;;;;10.05;6.18;;;;;;;21.46;21.01;98567.44;5062725;28;20431;-90
2021/04/14 04:49:07;;;;;;;9.98;6.60;;;;;;;21.15;21.33;98566.31;5062555;28;20033;-90
2021/04/14 04:51:33;;;;;;;8.32;5.65;;;;;;;20.89;21.74;98575.13;5061280;28;20029;-90
2021/04/14 04:53:59;;;;;;;7.88;5.30;;;;;;;20.62;21.96;98571.16;5066445;28;20048;-91
2021/04/14 04:56:25;;;;;;;7.72;5.43;;;;;;;20.28;22.23;98576.31;5063193;28;20029;-91
2021/04/14 04:58:51;;;;;;;9.30;5.93;;;;;;;20.14;22.51;98590.19;5057889;28;20048;-88
2021/04/14 05:01:18;;;;;;;9.40;6.32;;;;;;;20.44;22.64;98585.09;5064161;28;20033;-90
2021/04/14 05:03:44;;;;;;;8.82;6.15;;;;;;;20.56;22.25;98583.91;5063197;28;20045;-90
2021/04/14 05:06:10;;;;;;;13.27;6.55;;;;;;;20.03;22.79;98583.81;5064980;28;20028;-90
2021/04/14 05:08:37;;;;;;;7.97;5.43;;;;;;;20.17;22.80;98588.59;5068259;28;20508;-90
2021/04/14 05:11:03;;;;;;;9.80;6.57;;;;;;;20.53;22.44;98585.50;5062978;28;20035;-87
2021/04/14 05:13:29;;;;;;;9.60;6.10;;;;;;;20.10;22.98;98585.81;5062735;28;20049;-90
2021/04/14 05:15:55;;;;;;;8.20;6.20;;;;;;;20.50;22.50;98579.91;5066444;28;20492;-90
2021/04/14 05:18:21;;;;;;;8.80;5.50;;;;;;;21.07;21.76;98581.53;5066565;28;20032;-90
2021/04/14 05:20:48;;;;;;;11.05;5.72;;;;;;;21.00;21.72;98583.50;5067610;28;20040;-90
2021/04/14 05:23:14;;;;;;;5.88;4.53;;;;;;;20.31;22.53;98595.03;5056717;28;20059;-88
2021/04/14 05:25:44;;;;;;;9.18;5.80;;;;;;;20.62;22.18;98593.47;5058030;28;20493;-86
2021/04/14 05:28:13;;;;;;;7.32;5.53;;;;;;;20.91;22.03;98586.66;5059441;28;20044;-87
2021/04/14 05:30:40;;;;;;;6.43;4.45;;;;;;;21.29;21.55;98591.44;5058407;28;21377;-89
2021/04/14 05:33:08;;;;;;;6.05;4.25;;;;;;;21.32;21.53;98595.41;5063190;28;20496;-89
2021/04/14 05:35:36;;;;;;;8.18;5.47;;;;;;;21.45;21.25;98598.59;5066888;28;20051;-91
2021/04/14 05:38:02;;;;;;;7.95;5.53;;;;;;;21.48;21.32;98595.75;5061715;28;20040;-91
2021/04/14 05:40:29;;;;;;;8.63;5.85;;;;;;;21.37;21.48;98591.41;5059719;28;20531;-90
2021/04/14 05:42:55;;;;;;;5.88;4.20;;;;;;;22.28;20.51;98601.41;5070511;28;20416;-91
2021/04/14 05:45:28;;;;;;;8.52;5.32;;;;;;;23.03;19.70;98594.03;5070508;28;20037;-90
2021/04/14 05:47:54;;;;;;;8.15;5.47;;;;;;;23.22;19.26;98597.03;5058095;28;20025;-90
2021/04/14 05:50:24;;;;;;;6.10;4.28;;;;;;;23.15;19.38;98593.53;5071030;28;20036;-90
2021/04/14 05:52:50;;;;;;;8.70;5.65;;;;;;;23.27;19.20;98592.97;5064460;28;20058;-89
2021/04/14 05:55:17;;;;;;;7.43;4.93;;;;;;;23.21;19.27;98597.44;5064042;28;20032;-90
2021/04/14 05:57:44;;;;;;;7.30;4.95;;;;;;;23.51;18.91;98599.56;5064705;28;20025;-90
2021/04/14 06:00:15;;;;;;;7.95;4.88;;;;;;;23.65;18.81;98593.78;5063622;28;20029;-90
2021/04/14 06:02:42;;;;;;;7.75;5.18;;;;;;;23.67;18.93;98600.56;5054610;28;20384;-89
2021/04/14 06:05:11;;;;;;;4.10;3.67;;;;;;;23.25;19.10;98607.41;5072867;28;20112;-90
2021/04/14 06:07:37;;;;;;;5.70;4.40;;;;;;;22.90;19.48;98606.94;5064555;28;20033;-89
2021/04/14 06:10:05;;;;;;;5.72;4.07;;;;;;;22.68;19.65;98607.13;5067274;28;20059;-89
2021/04/14 06:12:31;;;;;;;7.35;4.75;;;;;;;22.20;20.52;98611.84;5064014;28;20095;-88
2021/04/14 06:14:58;;;;;;;6.35;4.72;;;;;;;22.56;20.08;98613.19;5077957;28;20032;-87
2021/04/14 06:17:24;;;;;;;6.72;4.07;;;;;;;23.17;19.47;98611.50;5052355;28;20033;-86
2021/04/14 06:19:50;;;;;;;5.30;3.90;;;;;;;22.79;19.64;98612.66;5058457;28;20033;-87
2021/04/14 06:22:17;;;;;;;6.55;4.53;;;;;;;22.12;20.67;98615.88;5052617;28;20033;-87
2021/04/14 06:24:44;;;;;;;5.40;4.00;;;;;;;22.64;19.96;98611.16;5055413;28;20033;-87
2021/04/14 06:27:14;;;;;;;5.15;3.83;;;;;;;22.70;20.03;98615.13;5055029;28;20032;-85
2021/04/14 06:29:40;;;;;;;7.68;4.80;;;;;;;23.00;19.71;98617.25;5066386;28;20024;-85
2021/04/14 06:32:07;;;;;;;6.68;4.88;;;;;;;22.87;19.89;98607.78;5063651;28;20032;-85
2021/04/14 06:34:33;;;;;;;7.70;4.95;;;;;;;22.37;20.33;98618.53;5071206;28;20067;-85
2021/04/14 06:37:00;;;;;;;5.72;4.28;;;;;;;22.96;19.77;98610.91;5055568;28;20040;-85
2021/04/14 06:39:33;;;;;;;6.00;4.47;;;;;;;22.77;19.95;98608.66;5055847;28;20373;-84
2021/04/14 06:57:55;;;;;;;5.38;4.25;;;;;;;23.86;19.42;98610.34;5094415;27;20397;-83
2021/04/14 07:00:32;;;;;;;5.55;4.40;;;;;;;24.35;18.81;98608.91;5068682;28;20035;-83
2021/04/14 07:03:18;;;;;;;4.68;3.75;;;;;;;24.56;18.67;98608.59;5065948;28;20435;-83
2021/04/14 07:05:48;;;;;;;5.75;3.85;;;;;;;21.79;20.62;98610.81;5070589;28;20074;-83
2021/04/14 07:08:21;;;;;;;4.95;3.63;;;;;;;23.04;20.07;98609.63;5068329;28;20527;-83
2021/04/14 07:10:51;;;;;;;6.22;4.82;;;;;;;24.02;19.02;98607.72;5068790;28;20032;-84
2021/04/14 07:13:17;;;;;;;5.25;3.75;;;;;;;24.32;18.56;98613.34;5067911;28;20032;-84
2021/04/14 07:15:44;;;;;;;5.95;4.15;;;;;;;24.24;18.75;98609.06;5065887;28;20044;-84
2021/04/14 07:18:44;;;;;;;7.10;4.55;;;;;;;24.46;18.34;98609.53;5068616;28;20037;-84
2021/04/14 07:21:16;;;;;;;6.55;4.60;;;;;;;25.06;18.11;98606.59;5067309;28;20033;-85
2021/04/14 07:23:57;;;;;;;9.73;5.03;;;;;;;25.68;17.92;98605.84;5068398;28;20107;-85
2021/04/14 07:26:44;;;;;;;9.95;5.35;;;;;;;25.77;17.58;98616.50;5066806;28;20115;-85
2021/04/14 07:29:27;;;;;;;7.30;5.05;;;;;;;25.90;17.39;98614.63;5070185;28;20387;-85
2021/04/14 07:32:18;;;;;;;9.32;5.45;;;;;;;25.88;17.30;98617.88;5065421;28;20326;-85
2021/04/14 07:35:15;;;;;;;8.98;5.10;;;;;;;25.85;17.62;98613.13;5068320;28;20047;-85
2021/04/14 07:38:16;;;;;;;7.45;5.38;;;;;;;25.65;17.64;98622.78;5060953;28;20086;-86
2021/04/14 07:40:48;;;;;;;5.55;4.82;;;;;;;25.46;17.64;98615.94;5031889;28;20091;-86
2021/04/14 07:43:32;;;;;;;5.72;4.25;;;;;;;25.15;17.95;98614.47;5066909;28;20096;-86
2021/04/14 07:45:58;;;;;;;5.82;4.45;;;;;;;25.02;17.84;98619.13;5061150;28;20389;-86
2021/04/14 07:48:28;;;;;;;6.53;4.65;;;;;;;24.86;18.37;98622.56;5067650;28;20589;-86
2021/04/14 07:50:59;;;;;;;4.97;4.47;;;;;;;24.76;18.28;98622.72;5067506;28;20079;-85
2021/04/14 07:53:30;;;;;;;4.53;3.90;;;;;;;25.15;18.01;98617.28;5062661;28;20073;-85
2021/04/14 07:56:24;;;;;;;4.13;3.60;;;;;;;25.12;17.67;98624.53;5056499;28;20056;-85
2021/04/14 07:59:05;;;;;;;4.53;3.40;;;;;;;24.65;18.13;98626.50;5053531;28;20034;-85
2021/04/14 08:01:34;;;;;;;4.10;3.45;;;;;;;24.33;18.58;98628.97;5046870;28;20057;-85
2021/04/14 08:04:27;;;;;;;4.53;3.67;;;;;;;22.66;19.55;98643.13;5054527;28;20029;-85
2021/04/14 08:07:04;;;;;;;4.32;3.78;;;;;;;23.43;19.65;98635.28;5053792;28;20505;-85
2021/04/14 08:09:30;;;;;;;6.85;3.97;;;;;;;23.29;19.87;98627.78;5042630;28;20033;-84
2021/04/14 08:12:03;;;;;;;6.28;3.53;;;;;;;24.31;18.75;98631.44;5052932;28;20036;-85
2021/04/14 08:14:35;;;;;;;6.88;4.90;;;;;;;24.14;18.76;98638.06;5055566;28;20033;-85
2021/04/14 08:17:11;;;;;;;7.32;4.57;;;;;;;23.68;18.99;98644.22;5054996;28;20080;-85
2021/04/14 08:19:38;;;;;;;4.85;3.70;;;;;;;24.31;18.61;98637.03;5053511;28;20036;-85
2021/04/14 08:22:21;;;;;;;3.47;2.70;;;;;;;21.01;22.00;98638.09;5049202;28;20048;-85
2021/04/14 08:24:55;;;;;;;7.18;4.90;;;;;;;19.14;24.21;98646.63;5044812;28;20064;-85
2021/04/14 08:27:31;;;;;;;6.35;3.67;;;;;;;19.33;24.10;98651.94;5045243;28;20123;-85
2021/04/14 08:30:10;;;;;;;4.45;3.08;;;;;;;19.96;23.77;98648.69;5050831;28;20039;-85
2021/04/14 08:32:43;;;;;;;2.65;2.30;;;;;;;20.48;23.62;98649.25;5044669;28;20132;-85
2021/04/14 08:35:26;;;;;;;3.15;2.50;;;;;;;21.58;21.58;98650.03;5053314;28;20068;-85
2021/04/14 08:38:07;;;;;;;4.10;3.17;;;;;;;20.72;22.52;98636.53;5042933;28;20481;-84
2021/04/14 08:40:49;;;;;;;6.45;4.22;;;;;;;19.48;23.55;98647.28;5052857;28;20029;-85
2021/04/14 08:43:34;;;;;;;3.38;2.25;;;;;;;20.58;23.06;98637.31;5053937;28;20037;-85
2021/04/14 08:46:33;;;;;;;5.88;3.45;;;;;;;21.32;21.97;98640.09;5052196;28;20036;-86
2021/04/14 08:49:22;;;;;;;6.72;4.15;;;;;;;19.71;23.52;98642.22;5047717;28;20489;-86
2021/04/14 08:51:53;;;;;;;5.50;3.05;;;;;;;22.02;21.71;98633.50;5054480;28;20037;-86
2021/04/14 08:54:28;;;;;;;6.32;3.92;;;;;;;22.52;21.04;98626.41;5053417;28;20029;-86
2021/04/14 08:56:55;;;;;;;5.72;4.28;;;;;;;22.36;21.01;98633.69;5054226;28;20056;-86
2021/04/14 08:59:22;;;;;;;4.85;3.42;;;;;;;22.57;21.32;98627.97;5054555;28;20032;-86
2021/04/14 09:01:53;;;;;;;3.97;2.88;;;;;;;22.93;20.86;98625.72;5064683;28;20511;-87
2021/04/14 09:04:23;;;;;;;3.53;2.40;;;;;;;23.22;20.46;98627.84;5042302;28;20108;-87
2021/04/14 09:06:52;;;;;;;3.10;2.78;;;;;;;23.07;20.67;98625.59;5041720;28;20410;-85
2021/04/14 09:09:22;;;;;;;3.35;2.22;;;;;;;23.01;20.36;98624.47;5039188;28;20029;-87
2021/04/14 09:12:04;;;;;;;5.10;3.53;;;;;;;21.19;21.98;98634.13;5034610;28;20057;-88
2021/04/14 09:14:31;;;;;;;3.63;2.80;;;;;;;21.12;22.35;98631.34;5033544;28;20036;-88
2021/04/14 09:17:15;;;;;;;2.38;2.10;;;;;;;22.45;21.05;98632.03;5048665;28;20520;-88
2021/04/14 09:19:47;;;;;;;2.38;2.17;;;;;;;23.31;20.07;98632.97;5053801;28;20449;-88
2021/04/14 09:22:13;;;;;;;3.28;2.30;;;;;;;21.84;21.29;98635.59;5051086;28;20486;-88
2021/04/14 09:24:48;;;;;;;5.25;2.95;;;;;;;18.79;24.55;98631.63;5037709;28;20568;-88
2021/04/14 09:27:25;;;;;;;2.75;1.80;;;;;;;19.70;24.27;98640.59;5043763;28;20493;-88
2021/04/14 09:30:06;;;;;;;4.07;1.75;;;;;;;21.54;22.00;98640.84;5048269;28;20029;-88
2021/04/14 09:32:56;;;;;;;2.53;1.48;;;;;;;19.10;24.14;98642.22;5040726;28;20108;-88
2021/04/14 09:35:28;;;;;;;1.60;1.23;;;;;;;18.69;25.38;98641.50;5060863;28;20041;-87
2021/04/14 09:38:24;;;;;;;2.60;2.35;;;;;;;19.63;24.86;98631.41;5039678;28;20390;-88
2021/04/14 09:40:52;;;;;;;3.35;1.40;;;;;;;19.01;25.39;98630.63;5039018;28;20045;-88
2021/04/14 09:43:27;;;;;;;2.13;1.13;;;;;;;20.63;23.67;98623.75;5041769;28;20030;-87
2021/04/14 09:46:33;;;;;;;1.58;1.13;;;;;;;19.02;25.82;98638.56;5036459;28;20037;-88
2021/04/14 09:49:13;;;;;;;1.30;1.20;;;;;;;20.02;24.27;98631.59;5024452;28;20099;-88
2021/04/14 09:51:43;;;;;;;2.47;1.10;;;;;;;21.46;22.67;98616.91;5044952;28;20444;-88
2021/04/14 09:54:18;;;;;;;4.55;1.20;;;;;;;21.61;22.67;98624.84;5052517;28;20551;-88
2021/04/14 09:56:52;;;;;;;0.73;0.73;;;;;;;22.13;21.85;98619.47;5049655;28;20045;-88
2021/04/14 09:59:34;;;;;;;2.25;1.25;;;;;;;22.04;21.46;98625.50;5048414;28;20034;-87
2021/04/14 10:02:06;;;;;;;1.27;0.93;;;;;;;21.12;22.85;98627.78;5038119;28;20049;-87
2021/04/14 10:04:36;;;;;;;3.53;1.45;;;;;;;18.95;25.01;98621.06;5036702;28;20088;-87
2021/04/14 10:07:07;;;;;;;0.82;0.82;;;;;;;18.27;26.29;98639.09;5033808;28;20033;-86
2021/04/14 10:09:36;;;;;;;;;;;;;;;17.45;26.74;98630.94;5041838;28;20025;-86
2021/04/14 10:12:20;;;;;;;1.45;0.93;;;;;;;16.40;28.48;98638.38;5035874;28;19923;-86
2021/04/14 10:14:55;;;;;;;0.68;0.68;;;;;;;16.39;29.38;98623.72;5037451;28;20053;-87
2021/04/14 10:17:23;;;;;;;0.63;0.63;;;;;;;18.58;25.74;98621.13;5043011;28;20043;-87
2021/04/14 10:19:55;;;;;;;3.10;1.27;;;;;;;16.72;29.61;98628.66;5052146;28;20028;-86
2021/04/14 10:22:34;;;;;;;0.70;0.70;;;;;;;19.48;25.65;98618.63;5052306;28;20025;-86
2021/04/14 10:25:08;;;;;;;1.00;0.90;;;;;;;18.88;25.80;98616.22;5050241;28;20025;-86
2021/04/14 10:27:34;;;;;;;1.15;0.73;;;;;;;21.20;22.76;98607.00;5036220;28;20029;-87
2021/04/14 10:30:04;;;;;;;1.80;1.20;;;;;;;19.92;24.27;98610.84;5036802;28;20033;-87
2021/04/14 10:32:31;;;;;;;1.25;0.90;;;;;;;19.88;24.29;98613.59;5037201;28;20041;-87
2021/04/14 10:35:13;;;;;;;1.80;1.00;;;;;;;20.68;22.25;98609.41;5040570;28;20029;-87
2021/04/14 10:37:45;;;;;;;3.35;1.00;;;;;;;20.45;23.29;98611.78;5051618;28;20037;-88
2021/04/14 10:40:19;;;;;;;2.08;1.25;;;;;;;20.62;23.31;98599.06;5034444;28;20498;-87
2021/04/14 10:42:47;;;;;;;2.35;1.35;;;;;;;21.08;22.68;98602.63;5038808;28;20083;-88
2021/04/14 10:45:17;;;;;;;2.88;0.90;;;;;;;21.88;21.93;98600.03;5038668;28;20029;-88
2021/04/14 10:47:45;;;;;;;2.78;1.20;;;;;;;19.67;24.14;98604.41;5048138;28;20036;-88
2021/04/14 10:50:22;;;;;;;1.48;0.80;;;;;;;19.32;24.33;98608.56;5051517;28;20497;-89
2021/04/14 10:52:57;;;;;;;2.90;1.20;;;;;;;17.20;26.96;98602.03;5037459;28;20025;-88
2021/04/14 10:55:28;;;;;;;0.70;0.60;;;;;;;17.66;26.82;98605.47;5050079;28;20493;-87
2021/04/14 10:58:00;;;;;;;1.25;0.98;;;;;;;19.09;24.97;98596.09;5051466;28;20018;-88
2021/04/14 11:00:32;;;;;;;3.05;1.35;;;;;;;18.28;26.36;98596.22;5045097;28;20041;-88
2021/04/14 11:03:13;;;;;;;4.32;1.40;;;;;;;17.89;25.81;98600.56;5043591;28;20124;-87
2021/04/14 11:05:44;;;;;;;0.83;0.80;;;;;;;18.59;25.46;98600.50;5044994;28;20029;-87
2021/04/14 11:08:12;;;;;;;4.45;1.10;;;;;;;19.79;23.51;98592.91;5047610;28;20033;-87
2021/04/14 11:10:40;;;;;;;1.25;0.95;;;;;;;21.05;22.32;98597.06;5044680;28;20025;-88
2021/04/14 11:13:19;;;;;;;2.08;0.88;;;;;;;18.57;24.70;98595.34;5033059;28;20022;-87
2021/04/14 11:15:48;;;;;;;3.13;1.10;;;;;;;20.02;23.95;98603.72;5035061;28;20029;-88
2021/04/14 11:18:16;;;;;;;3.58;1.25;;;;;;;20.57;22.97;98591.88;5049739;28;20029;-88
2021/04/14 11:20:56;;;;;;;2.88;1.52;;;;;;;19.99;23.35;98603.31;5032989;28;20021;-87
2021/04/14 11:23:26;;;;;;;2.80;1.50;;;;;;;18.92;23.57;98603.16;5039474;28;20030;-87
2021/04/14 11:26:03;;;;;;;3.30;1.30;;;;;;;17.94;25.67;98594.69;5038669;28;20498;-87
2021/04/14 11:28:42;;;;;;;4.22;1.50;;;;;;;18.95;24.78;98598.78;5034169;28;20040;-86
2021/04/14 11:31:10;;;;;;;2.92;1.65;;;;;;;19.20;24.89;98599.75;5047953;28;20371;-87
2021/04/14 11:33:45;;;;;;;1.80;0.90;;;;;;;19.25;23.97;98599.38;5038100;28;20678;-86
2021/04/14 11:36:23;;;;;;;3.10;1.40;;;;;;;17.32;25.88;98592.72;5047190;28;20036;-85
2021/04/14 11:39:04;;;;;;;3.63;1.15;;;;;;;18.26;25.93;98601.34;5046347;28;20033;-85
2021/04/14 11:41:35;;;;;;;3.45;1.88;;;;;;;18.31;24.89;98589.91;5050536;28;20041;-86
2021/04/14 11:44:15;;;;;;;2.80;1.33;;;;;;;18.35;25.30;98599.06;5053464;28;20021;-86
2021/04/14 11:46:42;;;;;;;1.75;1.00;;;;;;;20.10;23.26;98591.38;5046729;28;20087;-86
2021/04/14 11:49:11;;;;;;;2.65;1.33;;;;;;;20.50;21.96;98583.50;5052740;28;20394;-86
2021/04/14 11:51:45;;;;;;;2.33;1.40;;;;;;;21.42;21.81;98583.44;5055473;28;20033;-86
2021/04/14 11:54:29;;;;;;;1.30;1.20;;;;;;;21.33;21.99;98583.06;5055513;28;20033;-86
2021/04/14 11:57:12;;;;;;;1.38;1.27;;;;;;;23.19;19.42;98586.69;5051863;28;20125;-85
2021/04/14 11:59:44;;;;;;;1.65;1.13;;;;;;;23.01;19.95;98580.44;5055362;28;20063;-86
2021/04/14 12:02:13;;;;;;;1.75;1.20;;;;;;;23.79;18.78;98582.41;5054388;28;20421;-85
2021/04/14 12:04:41;;;;;;;1.80;1.38;;;;;;;24.60;18.31;98573.63;5055445;28;20068;-85
2021/04/14 12:07:07;;;;;;;1.70;1.25;;;;;;;25.02;17.63;98568.53;5052822;28;22009;-86